Aérodrome :
LOGIN :

S'inscrire | Disclaimer

   EN    FR    IT 

 










Légende :    VFR   VFR Marginal   IFR   IFR Intensif   IFR Très Intensif
Visi : 
Plafond : 
>= 8 km
>= 3000ft
5 à 8 km
1000 à 3000 ft
1500m à 5 km
500 à 1000 ft
800 à 1500m
200 à 500 ft
< 800m
< 200 ft
Symboles :   Orages  Brouillard  Fortes neiges  Fortes précipitations  Vent > 20 kt
SIGMETs :   Divers  Orages  Givrage  Turbulence  Onde Orograph.  Cendres Volcan.






- Altitude de l'aérodrome : 388 ft
- Code IATA : QYR


LFQB - Troyes Barberey

DERNIER METAR :
  • 150830Z AUTO 24014KT 9999 ///TCU 10/08 Q1005

METARs EXPIRÉS :
  • 150800Z AUTO 23014KT 9000 -RA SCT045/// OVC054/// ///CB 10/08 Q1004
  • 150730Z AUTO 24018KT 5000 RA BR SCT011/// SCT017/// BKN030/// ///CB 10/09 Q1004
  • 150700Z AUTO 22013KT 8000 -RA BKN014/// BKN025/// OVC031/// ///TCU 11/10 Q1002
  • 150630Z AUTO 21019KT 7000 -RA BKN017/// BKN024/// OVC031/// ///TCU 11/10 Q1002
  • 150600Z AUTO 20012KT 7000 -RA BKN015/// BKN023/// BKN029/// ///TCU 11/10 Q1002

TAF N/A



MET'MAP, la Météo Aéronautique d'un coup d'oeil ! - Copyright ORBIFLY Décembre 2007 - Disclaimer

ORBIFLY MET'MAP TEAM :

Programmation & Développement : Alexandra Zaïnal
Sur une idée originale de : Baudouin d'Aumeries
Assistance à la programmation : Marc-Olivier Méhu
Soutien technique & logistique : Manuel Goepfert

Contact : metmap@orbifly.com




SOURCES & CREDITS :

   NOAA